createdAt,value
2022-09-28T00:00:47.149Z,99.90
2022-09-28T00:03:13.894Z,99.90
2022-09-28T00:05:40.663Z,99.90
2022-09-28T00:08:07.465Z,99.90
2022-09-28T00:10:34.925Z,99.90
2022-09-28T00:13:01.817Z,99.90
2022-09-28T00:15:29.216Z,99.90
2022-09-28T00:17:55.991Z,99.90
2022-09-28T00:20:22.773Z,99.90
2022-09-28T00:22:49.411Z,99.90
2022-09-28T00:25:16.967Z,99.90
2022-09-28T00:27:49.165Z,99.90
2022-09-28T00:30:16.412Z,99.90
2022-09-28T00:32:43.475Z,99.90
2022-09-28T00:35:10.409Z,99.90
2022-09-28T00:37:37.054Z,99.90
2022-09-28T00:40:04.029Z,99.90
2022-09-28T00:42:30.666Z,99.90
2022-09-28T00:44:58.637Z,99.90
2022-09-28T00:47:43.366Z,99.90
2022-09-28T00:50:22.125Z,99.90
2022-09-28T00:52:56.983Z,99.90
2022-09-28T00:55:51.544Z,99.90
2022-09-28T00:58:29.705Z,99.90
2022-09-28T01:00:58.242Z,99.90
2022-09-28T01:03:26.278Z,99.90
2022-09-28T01:05:55.005Z,99.90
2022-09-28T01:08:23.903Z,99.90
2022-09-28T01:10:51.280Z,99.90
2022-09-28T01:13:20.031Z,99.90
2022-09-28T01:16:03.153Z,99.90
2022-09-28T01:18:43.583Z,99.90
2022-09-28T01:21:20.195Z,99.90
2022-09-28T01:24:11.283Z,99.90
2022-09-28T01:26:53.161Z,99.90
2022-09-28T01:29:43.443Z,99.90
2022-09-28T01:32:16.958Z,99.90
2022-09-28T01:35:07.992Z,99.90
2022-09-28T01:38:02.893Z,99.90
2022-09-28T01:40:32.073Z,99.90
2022-09-28T01:43:04.140Z,99.90
2022-09-28T01:45:39.826Z,99.90
2022-09-28T01:48:08.627Z,99.90
2022-09-28T01:50:42.253Z,99.90
2022-09-28T01:53:20.870Z,99.90
2022-09-28T01:55:58.560Z,99.90
2022-09-28T01:58:40.277Z,99.90
2022-09-28T02:01:14.153Z,99.90
2022-09-28T02:04:04.810Z,99.90
2022-09-28T02:06:38.970Z,99.90
2022-09-28T02:09:13.000Z,99.90
2022-09-28T02:11:45.839Z,99.90
2022-09-28T02:14:14.644Z,99.90
2022-09-28T02:16:47.798Z,99.90
2022-09-28T02:19:24.471Z,99.90
2022-09-28T02:22:16.370Z,99.90
2022-09-28T02:24:51.605Z,99.90
2022-09-28T02:27:44.818Z,99.90
2022-09-28T02:30:12.150Z,99.90
2022-09-28T02:32:44.110Z,99.90
2022-09-28T02:35:17.336Z,99.90
2022-09-28T02:37:45.051Z,99.90
2022-09-28T02:40:31.659Z,99.90
2022-09-28T02:43:24.268Z,99.90
2022-09-28T02:46:02.098Z,99.90
2022-09-28T02:48:49.184Z,99.90
2022-09-28T02:51:22.832Z,99.90
2022-09-28T02:54:11.951Z,99.90
2022-09-28T02:56:52.304Z,99.90
2022-09-28T02:59:31.042Z,99.90
2022-09-28T03:02:10.292Z,99.90
2022-09-28T03:04:48.308Z,99.90
2022-09-28T03:07:30.016Z,99.90
2022-09-28T03:10:14.653Z,99.90
2022-09-28T03:12:43.173Z,99.90
2022-09-28T03:15:11.186Z,99.90
2022-09-28T03:17:38.049Z,99.90
2022-09-28T03:20:05.735Z,99.90
2022-09-28T03:22:32.449Z,99.90
2022-09-28T03:24:59.143Z,99.90
2022-09-28T03:27:25.813Z,99.90
2022-09-28T03:29:52.477Z,99.90
2022-09-28T03:32:19.144Z,99.90
2022-09-28T03:34:45.819Z,99.90
2022-09-28T03:37:12.546Z,99.90
2022-09-28T03:39:39.474Z,99.90
2022-09-28T03:42:06.341Z,99.90
2022-09-28T03:44:33.383Z,99.90
2022-09-28T03:47:00.124Z,99.90
2022-09-28T03:49:26.972Z,99.90
2022-09-28T03:51:53.669Z,99.90
2022-09-28T03:54:20.454Z,99.90
2022-09-28T03:56:47.231Z,99.90
2022-09-28T03:59:14.081Z,99.90
2022-09-28T04:01:40.899Z,99.90
2022-09-28T04:04:07.688Z,99.90
2022-09-28T04:06:34.444Z,99.90
2022-09-28T04:09:01.192Z,99.90
2022-09-28T04:11:34.955Z,99.90
2022-09-28T04:14:10.770Z,99.90
2022-09-28T04:16:38.446Z,99.90
2022-09-28T04:19:05.340Z,99.90
2022-09-28T04:21:32.065Z,99.90
2022-09-28T04:23:59.417Z,99.90
2022-09-28T04:26:27.795Z,99.90
2022-09-28T04:29:12.935Z,99.90
2022-09-28T04:31:48.519Z,99.90
2022-09-28T04:34:18.663Z,99.90
2022-09-28T04:36:46.058Z,99.90
2022-09-28T04:39:14.195Z,99.90
2022-09-28T04:41:41.819Z,99.90
2022-09-28T04:44:09.135Z,99.90
2022-09-28T04:46:36.471Z,99.90
2022-09-28T04:49:03.610Z,99.90
2022-09-28T04:51:33.719Z,99.90
2022-09-28T04:54:00.347Z,99.90
2022-09-28T04:56:27.046Z,99.90
2022-09-28T04:58:53.879Z,99.90
2022-09-28T05:01:23.512Z,99.90
2022-09-28T05:03:54.091Z,99.90
2022-09-28T05:06:22.626Z,99.90
2022-09-28T05:08:51.925Z,99.90
2022-09-28T05:11:19.845Z,99.90
2022-09-28T05:13:48.426Z,99.90
2022-09-28T05:16:16.206Z,99.90
2022-09-28T05:18:43.312Z,99.90
2022-09-28T05:21:12.764Z,99.90
2022-09-28T05:23:40.446Z,99.90
2022-09-28T05:26:07.449Z,99.90
2022-09-28T05:28:34.194Z,99.90
2022-09-28T05:31:02.158Z,99.90
2022-09-28T05:33:29.550Z,99.90
2022-09-28T05:36:00.879Z,99.90
2022-09-28T05:38:28.762Z,99.90
2022-09-28T05:40:55.868Z,99.90
2022-09-28T05:43:23.469Z,99.90
2022-09-28T05:45:55.066Z,99.90
2022-09-28T05:48:22.419Z,99.90
2022-09-28T05:50:53.003Z,99.90
2022-09-28T05:53:20.162Z,99.90
2022-09-28T05:55:46.883Z,99.90
2022-09-28T05:58:13.613Z,99.90
2022-09-28T06:00:41.171Z,99.90
2022-09-28T06:03:11.750Z,99.90
2022-09-28T06:05:41.980Z,99.90
2022-09-28T06:08:13.036Z,99.90
2022-09-28T06:10:40.315Z,99.90
2022-09-28T06:13:07.846Z,99.90
2022-09-28T06:15:36.340Z,99.90
2022-09-28T06:18:09.449Z,99.90
2022-09-28T06:20:40.969Z,99.90
2022-09-28T06:23:11.965Z,99.90
2022-09-28T06:25:40.125Z,99.90
2022-09-28T06:28:11.882Z,99.90
2022-09-28T06:30:39.594Z,99.90
2022-09-28T06:33:08.391Z,99.90
2022-09-28T06:35:35.446Z,99.90
2022-09-28T06:38:02.575Z,99.90
2022-09-28T06:40:29.572Z,99.90
2022-09-28T06:43:11.436Z,99.90
2022-09-28T06:45:38.967Z,99.90
2022-09-28T06:48:06.869Z,99.90
2022-09-28T06:50:39.422Z,99.90
2022-09-28T06:53:09.408Z,99.90
2022-09-28T06:55:39.919Z,99.90
2022-09-28T06:58:09.995Z,99.90
2022-09-28T07:00:38.995Z,99.90
2022-09-28T07:03:14.650Z,99.90
2022-09-28T07:05:49.934Z,99.90
2022-09-28T07:08:17.535Z,99.90
2022-09-28T07:10:46.091Z,99.90
2022-09-28T07:13:32.418Z,99.90
2022-09-28T07:16:00.450Z,99.90
2022-09-28T07:18:29.103Z,99.90
2022-09-28T07:20:59.412Z,99.90
2022-09-28T07:23:30.636Z,99.90
2022-09-28T07:25:58.514Z,99.90
2022-09-28T07:28:25.450Z,99.90
2022-09-28T07:30:52.276Z,99.90
2022-09-28T07:33:19.091Z,99.90
2022-09-28T07:35:56.087Z,99.90
2022-09-28T07:38:23.459Z,99.90
2022-09-28T07:41:09.228Z,99.90
2022-09-28T07:43:36.122Z,99.90
2022-09-28T07:46:03.136Z,99.90
2022-09-28T07:48:37.116Z,99.90
2022-09-28T07:51:04.971Z,99.90
2022-09-28T07:53:32.307Z,99.90
2022-09-28T07:56:10.151Z,99.90
2022-09-28T07:58:38.680Z,99.90
2022-09-28T08:01:12.294Z,99.90
2022-09-28T08:03:40.092Z,99.90
2022-09-28T08:06:11.776Z,99.90
2022-09-28T08:08:44.140Z,99.90
2022-09-28T08:11:13.530Z,99.90
2022-09-28T08:13:41.111Z,99.90
2022-09-28T08:16:09.043Z,99.90
2022-09-28T08:18:36.686Z,99.90
2022-09-28T08:21:23.807Z,99.90
2022-09-28T08:23:51.759Z,99.90
2022-09-28T08:26:19.203Z,99.90
2022-09-28T08:28:48.031Z,99.90
2022-09-28T08:31:15.612Z,99.90
2022-09-28T08:33:42.962Z,99.90
2022-09-28T08:36:11.115Z,99.90
2022-09-28T08:38:38.124Z,99.90
2022-09-28T08:41:36.962Z,99.90
2022-09-28T08:44:23.944Z,99.90
2022-09-28T08:47:02.348Z,99.90
2022-09-28T08:49:41.954Z,99.90
2022-09-28T08:52:26.285Z,99.90
2022-09-28T08:55:34.498Z,99.90
2022-09-28T08:58:18.462Z,99.90
2022-09-28T09:00:51.197Z,99.90
2022-09-28T09:03:42.210Z,99.90
2022-09-28T09:06:21.392Z,99.90
2022-09-28T09:09:24.278Z,99.90
2022-09-28T09:12:12.050Z,99.90
2022-09-28T09:15:02.864Z,99.90
2022-09-28T09:17:47.657Z,99.90
2022-09-28T09:20:26.738Z,99.90
2022-09-28T09:23:01.923Z,99.90
2022-09-28T09:25:41.370Z,99.90
2022-09-28T09:28:42.868Z,99.90
2022-09-28T09:31:26.732Z,99.90
2022-09-28T09:34:19.860Z,99.90
2022-09-28T09:36:53.041Z,99.90
2022-09-28T09:39:41.310Z,99.90
2022-09-28T09:42:20.249Z,99.90
2022-09-28T09:45:02.554Z,99.90
2022-09-28T09:47:43.174Z,99.90
2022-09-28T09:50:29.914Z,99.90
2022-09-28T09:53:21.191Z,99.60
2022-09-28T09:55:55.159Z,99.90
2022-09-28T09:58:46.739Z,99.90
2022-09-28T10:01:18.254Z,97.60
2022-09-28T10:03:49.093Z,97.30
2022-09-28T10:06:18.179Z,97.40
2022-09-28T10:08:51.452Z,95.40
2022-09-28T10:11:29.309Z,95.70
2022-09-28T10:13:58.100Z,96.60
2022-09-28T10:16:25.663Z,95.80
2022-09-28T10:18:53.590Z,92.00
2022-09-28T10:21:23.212Z,94.10
2022-09-28T10:23:57.169Z,95.10
2022-09-28T10:26:41.750Z,91.40
2022-09-28T10:29:20.060Z,92.90
2022-09-28T10:31:49.066Z,91.60
2022-09-28T10:34:18.942Z,92.00
2022-09-28T10:36:58.308Z,90.90
2022-09-28T10:39:53.571Z,91.40
2022-09-28T10:42:27.826Z,88.10
2022-09-28T10:45:22.473Z,87.60
2022-09-28T10:47:50.184Z,75.80
2022-09-28T10:50:26.558Z,80.90
2022-09-28T10:52:53.573Z,74.30
2022-09-28T10:55:32.412Z,73.20
2022-09-28T10:58:24.427Z,70.80
2022-09-28T11:00:52.811Z,65.50
2022-09-28T11:03:23.098Z,65.90
2022-09-28T11:05:55.455Z,67.90
2022-09-28T11:08:27.363Z,67.40
2022-09-28T11:11:10.285Z,73.70
2022-09-28T11:13:44.068Z,68.90
2022-09-28T11:16:27.251Z,73.60
2022-09-28T11:18:54.914Z,76.50
2022-09-28T11:21:32.210Z,80.70
2022-09-28T11:24:06.624Z,74.70
2022-09-28T11:26:40.884Z,76.20
2022-09-28T11:29:24.320Z,73.70
2022-09-28T11:32:00.907Z,71.90
2022-09-28T11:34:57.878Z,70.20
2022-09-28T11:37:24.630Z,70.90
2022-09-28T11:40:28.999Z,74.50
2022-09-28T11:43:19.536Z,68.80
2022-09-28T11:45:54.020Z,69.30
2022-09-28T11:48:51.383Z,68.80
2022-09-28T11:51:23.342Z,63.50
2022-09-28T11:53:57.031Z,70.50
2022-09-28T11:56:33.061Z,70.50
2022-09-28T11:59:28.841Z,74.70
2022-09-28T12:02:15.126Z,72.10
2022-09-28T12:04:54.509Z,73.90
2022-09-28T12:07:43.324Z,65.70
2022-09-28T12:10:48.354Z,66.20
2022-09-28T12:13:23.830Z,68.40
2022-09-28T12:19:01.532Z,66.90
2022-09-28T12:21:51.237Z,66.00
2022-09-28T12:24:23.543Z,64.60
2022-09-28T12:27:07.450Z,64.90
2022-09-28T12:29:37.850Z,63.90
2022-09-28T12:32:28.783Z,62.10
2022-09-28T12:34:56.916Z,64.60
2022-09-28T12:37:36.614Z,68.30
2022-09-28T12:40:27.058Z,70.30
2022-09-28T12:43:19.988Z,70.90
2022-09-28T12:46:12.301Z,70.40
2022-09-28T12:49:27.250Z,71.30
2022-09-28T12:51:52.427Z,65.50
2022-09-28T12:54:28.285Z,67.00
2022-09-28T12:57:02.086Z,67.00
2022-09-28T12:59:38.277Z,63.20
2022-09-28T13:02:43.898Z,63.20
2022-09-28T13:05:31.136Z,59.90
2022-09-28T13:08:23.870Z,58.10
2022-09-28T13:11:33.108Z,55.50
2022-09-28T13:14:18.202Z,55.60
2022-09-28T13:17:06.653Z,56.40
2022-09-28T13:19:39.152Z,58.30
2022-09-28T13:22:35.165Z,56.70
2022-09-28T13:25:11.046Z,56.10
2022-09-28T13:27:44.291Z,56.80
2022-09-28T13:30:15.058Z,55.20
2022-09-28T13:32:43.690Z,55.80
2022-09-28T13:35:21.602Z,55.90
2022-09-28T13:38:08.772Z,55.40
2022-09-28T13:41:06.766Z,55.60
2022-09-28T13:44:03.376Z,58.20
2022-09-28T13:47:07.868Z,61.50
2022-09-28T13:50:06.389Z,67.40
2022-09-28T13:52:40.038Z,84.90
2022-09-28T13:55:47.625Z,91.20
2022-09-28T13:58:35.348Z,94.90
2022-09-28T14:01:37.349Z,99.50
2022-09-28T14:04:19.076Z,99.50
2022-09-28T14:07:41.691Z,98.60
2022-09-28T14:10:23.596Z,99.90
2022-09-28T14:12:52.484Z,92.20
2022-09-28T14:15:37.743Z,73.30
2022-09-28T14:18:15.968Z,82.30
2022-09-28T14:20:57.717Z,73.50
2022-09-28T14:23:52.719Z,64.70
2022-09-28T14:26:41.811Z,66.40
2022-09-28T14:29:33.771Z,60.70
2022-09-28T14:32:09.989Z,77.10
2022-09-28T14:34:41.046Z,84.20
2022-09-28T14:37:50.668Z,85.00
2022-09-28T14:40:36.128Z,82.50
2022-09-28T14:43:25.203Z,83.20
2022-09-28T14:46:12.226Z,90.60
2022-09-28T14:48:49.502Z,90.80
2022-09-28T14:51:31.287Z,90.80
2022-09-28T14:54:03.145Z,90.00
2022-09-28T14:56:38.845Z,97.60
2022-09-28T14:59:07.008Z,97.30
2022-09-28T15:01:36.320Z,93.60
2022-09-28T15:04:06.623Z,97.10
2022-09-28T15:06:50.735Z,97.70
2022-09-28T15:09:38.471Z,99.90
2022-09-28T15:12:13.064Z,99.90
2022-09-28T15:14:49.925Z,99.10
2022-09-28T15:17:21.637Z,99.40
2022-09-28T15:20:30.129Z,99.90
2022-09-28T15:22:58.976Z,99.90
2022-09-28T15:25:31.666Z,99.90
2022-09-28T15:28:04.585Z,99.90
2022-09-28T15:30:34.685Z,99.90
2022-09-28T15:33:22.449Z,99.90
2022-09-28T15:36:01.899Z,99.90
2022-09-28T15:38:31.332Z,99.90
2022-09-28T15:40:58.671Z,99.90
2022-09-28T15:43:32.882Z,99.90
2022-09-28T15:46:13.469Z,99.90
2022-09-28T15:48:51.995Z,99.90
2022-09-28T15:51:21.333Z,99.90
2022-09-28T15:53:58.309Z,99.90
2022-09-28T15:56:26.659Z,99.90
2022-09-28T15:59:13.590Z,99.90
2022-09-28T16:01:44.816Z,99.90
2022-09-28T16:04:33.066Z,99.90
2022-09-28T16:07:24.521Z,99.90
2022-09-28T16:10:00.460Z,99.90
2022-09-28T16:12:33.298Z,99.90
2022-09-28T16:15:06.042Z,99.90
2022-09-28T16:17:35.096Z,99.90
2022-09-28T16:20:05.137Z,99.90
2022-09-28T16:22:34.680Z,99.90
2022-09-28T16:25:01.893Z,99.90
2022-09-28T16:27:42.877Z,99.90
2022-09-28T16:30:21.672Z,99.90
2022-09-28T16:32:52.898Z,99.90
2022-09-28T16:35:29.992Z,99.90
2022-09-28T16:38:04.286Z,99.90
2022-09-28T16:40:33.242Z,99.90
2022-09-28T16:43:03.258Z,99.90
2022-09-28T16:45:33.214Z,99.90
2022-09-28T16:48:01.654Z,99.90
2022-09-28T16:50:29.033Z,99.90
2022-09-28T16:53:29.869Z,99.90
2022-09-28T16:55:57.870Z,99.90
2022-09-28T16:58:25.706Z,99.90
2022-09-28T17:00:54.575Z,99.90
2022-09-28T17:03:23.488Z,99.90
2022-09-28T17:05:51.418Z,99.90
2022-09-28T17:08:22.184Z,99.90
2022-09-28T17:13:45.170Z,99.90
2022-09-28T17:16:11.932Z,99.90
2022-09-28T17:18:39.754Z,99.90
2022-09-28T17:21:11.219Z,99.90
2022-09-28T17:23:37.998Z,99.90
2022-09-28T17:26:05.725Z,99.90
2022-09-28T17:28:35.199Z,99.90
2022-09-28T17:31:02.923Z,99.90
2022-09-28T17:33:29.835Z,99.90
2022-09-28T17:36:01.247Z,99.90
2022-09-28T17:38:28.510Z,99.90
2022-09-28T17:40:55.466Z,99.90
2022-09-28T17:43:22.567Z,99.90
2022-09-28T17:45:50.375Z,99.90
2022-09-28T17:48:23.358Z,99.90
2022-09-28T17:50:50.678Z,99.90
2022-09-28T17:53:17.845Z,99.90
2022-09-28T17:55:45.026Z,99.90
2022-09-28T17:58:18.729Z,99.90
2022-09-28T18:00:47.607Z,99.90
2022-09-28T18:03:24.939Z,99.90
2022-09-28T18:06:06.594Z,99.90
2022-09-28T18:08:37.247Z,99.90
2022-09-28T18:11:03.985Z,99.90
2022-09-28T18:13:30.990Z,99.90
2022-09-28T18:15:57.745Z,99.90
2022-09-28T18:18:25.366Z,99.90
2022-09-28T18:20:52.774Z,99.90
2022-09-28T18:23:19.829Z,99.90
2022-09-28T18:25:47.176Z,99.90
2022-09-28T18:28:14.638Z,99.90
2022-09-28T18:30:44.262Z,99.90
2022-09-28T18:33:12.379Z,99.90
2022-09-28T18:35:39.486Z,99.90
2022-09-28T18:38:06.869Z,99.90
2022-09-28T18:40:35.021Z,99.90
2022-09-28T18:43:02.413Z,99.90
2022-09-28T18:45:29.470Z,99.90
2022-09-28T18:47:57.450Z,99.90
2022-09-28T18:50:24.171Z,99.90
2022-09-28T18:52:50.919Z,99.90
2022-09-28T18:55:17.706Z,99.90
2022-09-28T18:57:46.307Z,99.90
2022-09-28T19:00:14.715Z,99.90
2022-09-28T19:02:41.644Z,99.90
2022-09-28T19:05:08.556Z,99.90
2022-09-28T19:07:35.969Z,99.90
2022-09-28T19:10:02.728Z,99.90
2022-09-28T19:12:29.448Z,99.90
2022-09-28T19:14:56.441Z,99.90
2022-09-28T19:17:23.191Z,99.90
2022-09-28T19:19:51.602Z,99.90
2022-09-28T19:22:18.369Z,99.90
2022-09-28T19:24:45.114Z,99.90
2022-09-28T19:27:11.878Z,99.90
2022-09-28T19:29:38.541Z,99.90
2022-09-28T19:32:05.231Z,99.90
2022-09-28T19:34:31.889Z,99.90
2022-09-28T19:37:00.579Z,99.90
2022-09-28T19:39:27.311Z,99.90
2022-09-28T19:41:54.380Z,99.90
2022-09-28T19:44:26.947Z,99.90
2022-09-28T19:47:08.726Z,99.90
2022-09-28T19:49:37.482Z,99.90
2022-09-28T19:52:17.597Z,99.90
2022-09-28T19:54:59.925Z,99.90
2022-09-28T19:57:29.169Z,99.90
2022-09-28T20:00:01.664Z,99.90
2022-09-28T20:02:29.439Z,99.90
2022-09-28T20:04:56.240Z,99.90
2022-09-28T20:07:22.966Z,99.90
2022-09-28T20:09:49.621Z,99.90
2022-09-28T20:12:16.280Z,99.90
2022-09-28T20:14:42.965Z,99.90
2022-09-28T20:17:10.079Z,99.90
2022-09-28T20:19:36.817Z,99.90
2022-09-28T20:22:03.687Z,99.90
2022-09-28T20:24:31.209Z,99.90
2022-09-28T20:26:58.118Z,99.90
2022-09-28T20:29:25.013Z,99.90
2022-09-28T20:31:52.052Z,99.90
2022-09-28T20:34:18.897Z,99.90
2022-09-28T20:36:45.554Z,99.90
2022-09-28T20:39:12.789Z,99.90
2022-09-28T20:41:40.263Z,99.90
2022-09-28T20:44:07.426Z,99.90
2022-09-28T20:46:35.607Z,99.90
2022-09-28T20:49:02.961Z,99.90
2022-09-28T20:51:29.874Z,99.90
2022-09-28T20:53:58.051Z,99.90
2022-09-28T20:56:27.286Z,99.90
2022-09-28T20:58:55.141Z,99.90
2022-09-28T21:01:24.201Z,99.90
2022-09-28T21:04:02.135Z,99.90
2022-09-28T21:06:31.293Z,99.90
2022-09-28T21:08:58.569Z,99.90
2022-09-28T21:11:27.887Z,99.90
2022-09-28T21:13:58.171Z,99.90
2022-09-28T21:16:26.240Z,99.90
2022-09-28T21:18:53.112Z,99.90
2022-09-28T21:21:21.566Z,99.90
2022-09-28T21:23:51.543Z,99.90
2022-09-28T21:26:27.082Z,99.90
2022-09-28T21:28:54.389Z,99.90
2022-09-28T21:31:26.222Z,99.90
2022-09-28T21:33:55.372Z,99.90
2022-09-28T21:36:22.045Z,99.90
2022-09-28T21:38:49.354Z,99.90
2022-09-28T21:41:16.353Z,99.90
2022-09-28T21:43:43.042Z,99.90
2022-09-28T21:46:10.362Z,99.90
2022-09-28T21:48:37.281Z,99.90
2022-09-28T21:51:07.233Z,99.90
2022-09-28T21:53:36.266Z,99.90
2022-09-28T21:56:04.850Z,99.90
2022-09-28T21:58:33.549Z,99.90
2022-09-28T22:01:07.629Z,99.90
2022-09-28T22:03:36.207Z,99.90
2022-09-28T22:06:04.912Z,99.90
2022-09-28T22:08:32.079Z,99.90
2022-09-28T22:11:03.058Z,99.90
2022-09-28T22:13:31.028Z,99.90
2022-09-28T22:15:58.783Z,99.90
2022-09-28T22:18:27.125Z,99.90
2022-09-28T22:21:07.213Z,99.90
2022-09-28T22:23:34.760Z,99.90
2022-09-28T22:26:07.284Z,99.90
2022-09-28T22:28:34.459Z,99.90
2022-09-28T22:31:01.788Z,99.90
2022-09-28T22:33:28.542Z,99.90
2022-09-28T22:35:55.829Z,99.90
2022-09-28T22:38:24.502Z,99.90
2022-09-28T22:40:54.600Z,99.90
2022-09-28T22:43:24.395Z,99.90
2022-09-28T22:46:00.997Z,99.90
2022-09-28T22:48:27.867Z,99.90
2022-09-28T22:50:54.636Z,99.90
2022-09-28T22:53:21.474Z,99.90
2022-09-28T22:55:48.261Z,99.90
2022-09-28T22:58:15.006Z,99.90
2022-09-28T23:00:42.446Z,99.90
2022-09-28T23:03:09.616Z,99.90
2022-09-28T23:05:36.473Z,99.90
2022-09-28T23:08:03.748Z,99.90
2022-09-28T23:10:30.402Z,99.90
2022-09-28T23:12:57.266Z,99.90
2022-09-28T23:15:25.083Z,99.90
2022-09-28T23:17:54.988Z,99.90
2022-09-28T23:20:22.001Z,99.90
2022-09-28T23:22:49.637Z,99.90
2022-09-28T23:25:17.860Z,99.90
2022-09-28T23:27:48.931Z,99.90
2022-09-28T23:30:17.099Z,99.90
2022-09-28T23:32:44.183Z,99.90
2022-09-28T23:35:11.441Z,99.90
2022-09-28T23:37:38.635Z,99.90
2022-09-28T23:40:06.839Z,99.90
2022-09-28T23:42:34.890Z,99.90
2022-09-28T23:45:01.807Z,99.90
2022-09-28T23:47:28.833Z,99.90
2022-09-28T23:49:55.586Z,99.90
2022-09-28T23:52:22.338Z,99.90
2022-09-28T23:54:49.006Z,99.90
2022-09-28T23:57:15.782Z,99.90
2022-09-28T23:59:42.465Z,99.90
